17:43
Airports
History
Links
Donate
Help keep this website running!
PayPal
Bitcoin
This page is community maintained. The information is intended for PC simulator navigation or reference.
Always use approved charts for navigation.
SNAU
Aeroclub
Aeroclub (SNAU)
Aracaju, Sergipe, Brazil (49060)
(C)
Lat/Lng:10° 54' 11" S / 37° 4' 59.01" W
-10.903056 / -37.083057
Elevation:23'ft / 7mMSL
ID / ICAO:SNAU
Runways:1
Longest:14-32
Concrete 966m / 3,168ft
Controlled:Yes
Nearby Weather17:20 GMT 2017-09-21
Nearby weather at SBAR, SANTA MARIA located 5.7 nautical miles from SNAU
Altimeter: 30.06
Visibility: 6.2 statute miles
Wind: 5 knots (from 120°)
Temp: 24°c / 75°f
Humidity: 78.4%

METAR: SBAR 211720Z 12005KT 9999 FEW013 SCT017 BKN070 24/20 Q1018

(Powered by phpweather)
Runway 14 / 32
Dimensions:965.6 x 13.7m 3168' x 45'ft
Surface:Concrete
Edge Lights:Medium intensity
Runway 14 [A]Runway 32 [B]
Heading:117°TH 297°TH
Lat:
Lng:
10° 54' 3.63"S
37° 5' 13.13"W
10° 54' 18.38"S
37° 4' 44.88"W
ALS:MALSMALS
User Notes and Comments
10° 54' 11" S / 37° 4' 59.01" W
Distance To
Airport ID:
Nearby Airports
(U) SANTA MARIA 5.7 NM
SBAR ( WX ) S 171°
4 Fazenda Boa Luz 9.2 NM
SNLU WNW 297°
4 Praia do Saco 39.4 NM
SNOD SSW 204°
(U) Propria 47.1 NM
SNOP NNE 21°
(C) Penedo 56.9 NM
SNPE NE 39°
4 Campo da Praia 71.8 NM
SNCY NE 48°
(U) ADUSTINA 71.8 NM
SNAH WNW 288°
VFR Chart
Flight Planning at SkyVector.com